Itaitinga, Brazil
Current Conditions -  °F | °C
As of 10:00 AM on Friday 24 Oct 2014 (Local Time) from SBFZ Reporting Station
Broken Clouds Broken Clouds  
Wind Chill: 82°   Ceiling: 2500
Heat Index: 84°   Visibility: 6mi
Dew Point: 64°   Wind: 24mph
Humidity: 54%   Direction: 120°ESE
Pressure: 29.91"   Gusts: NA
Location:  3.97°S, 38.53°W
Report Text: SBFZ 241300Z 12021KT 9999 BKN025 28/18 Q1013
Loading
Personal Weather Stations






























Interactive Weather Map
Tropical Storm Tracking
New forecast layout! Learn more

10-Day Weather Forecast

Advertisements
Track Severe Weather on mobile